METAR AND TAF INFORMATION
METAR FOR ZJSY
ADDS - METARS form results

(0718 UTC 22 January 2019)
Data provider http://aviationweather.gov/metar/data/
 
METAR text: ZJSY 220700Z 24004MPS 180V280 9999 FEW023 25/15 Q1018 NOSIG
Conditions at: ZJSY (SANYA/FENGHUANG , CN) observed 0700 UTC 22 January 2019
Temperature: 25.0°C (77°F)
Dewpoint: 15.0°C (59°F) [RH = 54%]
Pressure (altimeter): 30.06 inches Hg (1018.0 mb)
Winds: from the WSW (240 degrees) at 9 MPH (8 knots; 4.1 m/s)
Visibility: 6 or more miles (10+ km)
Ceiling: at least 12,000 feet AGL
Clouds: few clouds at 2300 feet AGL
Weather: no significant weather observed at this time

Forecast for: ZJSY (SANYA/FENGHUANG , CN)
Text: TAF ZJSY 220301Z 2206/2306 09004MPS 9999 FEW020 TX27/2206Z TN19/2221Z
Forecast period: 0600 UTC 22 January 2019 to 0600 UTC 23 January 2019
Forecast type: FROM: standard forecast or significant change
Winds: from the E (90 degrees) at 9 MPH (8 knots; 4.1 m/s)
Visibility: 6 or more miles 10+ km)
Ceiling: at least 12,000 feet AGL
Clouds: few clouds at 2000 feet AGL
Weather: no significant weather forecast for this period

 AIRPORT MAP

 RUNWAY INFORMATION

 AIRPORT FREQUENCIES
Type TWR Name FENGHUANG Frequency 118.15 MHZ

 AIRPORT NEAR NAVIGATION AIDS
Type VOR-DME Name Sanya Frequency 112500 KHZ
Type NDB Name Baolong Frequency 426 KHZ



2018 Air Astana Virtual Airline